sensor_id;sensor_type;location;lat;lon;timestamp;temperature;humidity
41435;DHT22;27177;22.262;114.192;2023-06-04T00:01:54;28.30;99.90
41435;DHT22;27177;22.262;114.192;2023-06-04T00:04:20;28.40;99.90
41435;DHT22;27177;22.262;114.192;2023-06-04T00:06:48;28.40;99.90
41435;DHT22;27177;22.262;114.192;2023-06-04T00:09:15;28.40;99.90
41435;DHT22;27177;22.262;114.192;2023-06-04T00:11:41;28.40;99.90
41435;DHT22;27177;22.262;114.192;2023-06-04T00:14:07;28.30;99.90
41435;DHT22;27177;22.262;114.192;2023-06-04T00:16:33;28.40;99.90
41435;DHT22;27177;22.262;114.192;2023-06-04T00:19:02;28.40;99.90
41435;DHT22;27177;22.262;114.192;2023-06-04T00:21:28;28.40;99.90
41435;DHT22;27177;22.262;114.192;2023-06-04T00:23:55;28.40;99.90
41435;DHT22;27177;22.262;114.192;2023-06-04T00:26:21;28.50;99.90
41435;DHT22;27177;22.262;114.192;2023-06-04T00:28:47;28.60;99.90
41435;DHT22;27177;22.262;114.192;2023-06-04T00:31:13;28.70;99.90
41435;DHT22;27177;22.262;114.192;2023-06-04T00:33:40;28.70;99.90
41435;DHT22;27177;22.262;114.192;2023-06-04T00:36:06;28.60;99.90
41435;DHT22;27177;22.262;114.192;2023-06-04T00:38:33;28.60;99.90
41435;DHT22;27177;22.262;114.192;2023-06-04T00:40:59;28.50;99.90
41435;DHT22;27177;22.262;114.192;2023-06-04T00:43:25;28.50;99.90
41435;DHT22;27177;22.262;114.192;2023-06-04T00:45:52;28.50;99.90
41435;DHT22;27177;22.262;114.192;2023-06-04T00:48:19;28.40;99.90
41435;DHT22;27177;22.262;114.192;2023-06-04T00:50:46;28.40;99.90
41435;DHT22;27177;22.262;114.192;2023-06-04T00:53:12;28.50;99.90
41435;DHT22;27177;22.262;114.192;2023-06-04T00:55:39;28.50;99.90
41435;DHT22;27177;22.262;114.192;2023-06-04T00:58:05;28.50;99.90
41435;DHT22;27177;22.262;114.192;2023-06-04T01:00:31;28.50;99.90
41435;DHT22;27177;22.262;114.192;2023-06-04T01:02:58;28.60;99.90
41435;DHT22;27177;22.262;114.192;2023-06-04T01:05:40;28.70;99.90
41435;DHT22;27177;22.262;114.192;2023-06-04T01:08:08;28.80;99.90
41435;DHT22;27177;22.262;114.192;2023-06-04T01:10:34;28.90;99.90
41435;DHT22;27177;22.262;114.192;2023-06-04T01:13:01;28.90;99.90
41435;DHT22;27177;22.262;114.192;2023-06-04T01:15:27;29.10;99.90
41435;DHT22;27177;22.262;114.192;2023-06-04T01:17:54;29.20;99.90
41435;DHT22;27177;22.262;114.192;2023-06-04T01:20:44;29.20;99.90
41435;DHT22;27177;22.262;114.192;2023-06-04T01:25:41;29.20;99.90
41435;DHT22;27177;22.262;114.192;2023-06-04T01:28:12;29.20;99.90
41435;DHT22;27177;22.262;114.192;2023-06-04T01:30:43;29.30;99.90
41435;DHT22;27177;22.262;114.192;2023-06-04T01:33:12;29.30;99.90
41435;DHT22;27177;22.262;114.192;2023-06-04T01:35:38;29.30;99.90
41435;DHT22;27177;22.262;114.192;2023-06-04T01:38:05;29.30;99.90
41435;DHT22;27177;22.262;114.192;2023-06-04T01:40:31;29.30;99.90
41435;DHT22;27177;22.262;114.192;2023-06-04T01:42:58;29.20;99.90
41435;DHT22;27177;22.262;114.192;2023-06-04T01:45:25;29.10;99.90
41435;DHT22;27177;22.262;114.192;2023-06-04T01:47:52;29.00;99.90
41435;DHT22;27177;22.262;114.192;2023-06-04T01:50:18;28.80;99.90
41435;DHT22;27177;22.262;114.192;2023-06-04T01:52:45;28.70;99.90
41435;DHT22;27177;22.262;114.192;2023-06-04T01:55:12;28.60;99.90
41435;DHT22;27177;22.262;114.192;2023-06-04T01:57:39;28.60;99.90
41435;DHT22;27177;22.262;114.192;2023-06-04T02:00:07;28.50;99.90
41435;DHT22;27177;22.262;114.192;2023-06-04T02:02:35;28.40;99.90
41435;DHT22;27177;22.262;114.192;2023-06-04T02:05:04;28.20;99.90
41435;DHT22;27177;22.262;114.192;2023-06-04T02:07:34;28.00;99.90
41435;DHT22;27177;22.262;114.192;2023-06-04T02:10:00;27.80;99.90
41435;DHT22;27177;22.262;114.192;2023-06-04T02:12:27;27.80;99.90
41435;DHT22;27177;22.262;114.192;2023-06-04T02:14:53;27.70;99.90
41435;DHT22;27177;22.262;114.192;2023-06-04T02:17:19;27.60;99.90
41435;DHT22;27177;22.262;114.192;2023-06-04T02:19:46;27.50;99.90
41435;DHT22;27177;22.262;114.192;2023-06-04T02:22:16;27.50;99.90
41435;DHT22;27177;22.262;114.192;2023-06-04T02:24:42;27.50;99.90
41435;DHT22;27177;22.262;114.192;2023-06-04T02:27:09;27.50;99.90
41435;DHT22;27177;22.262;114.192;2023-06-04T02:29:36;27.50;99.90
41435;DHT22;27177;22.262;114.192;2023-06-04T02:32:05;27.60;99.90
41435;DHT22;27177;22.262;114.192;2023-06-04T02:34:31;27.60;99.90
41435;DHT22;27177;22.262;114.192;2023-06-04T02:36:59;27.60;99.90
41435;DHT22;27177;22.262;114.192;2023-06-04T02:39:26;27.60;99.90
41435;DHT22;27177;22.262;114.192;2023-06-04T02:41:52;27.60;99.90
41435;DHT22;27177;22.262;114.192;2023-06-04T02:44:18;27.50;99.90
41435;DHT22;27177;22.262;114.192;2023-06-04T02:46:45;27.50;99.90
41435;DHT22;27177;22.262;114.192;2023-06-04T02:49:11;27.40;99.90
41435;DHT22;27177;22.262;114.192;2023-06-04T02:51:40;27.50;99.90
41435;DHT22;27177;22.262;114.192;2023-06-04T02:54:07;27.60;99.90
41435;DHT22;27177;22.262;114.192;2023-06-04T02:56:33;27.80;99.90
41435;DHT22;27177;22.262;114.192;2023-06-04T02:59:00;28.10;99.90
41435;DHT22;27177;22.262;114.192;2023-06-04T03:01:27;28.40;99.90
41435;DHT22;27177;22.262;114.192;2023-06-04T03:03:53;28.50;99.90
41435;DHT22;27177;22.262;114.192;2023-06-04T03:06:20;28.60;99.90
41435;DHT22;27177;22.262;114.192;2023-06-04T03:08:48;28.80;99.90
41435;DHT22;27177;22.262;114.192;2023-06-04T03:11:14;29.00;99.90
41435;DHT22;27177;22.262;114.192;2023-06-04T03:13:40;29.20;99.90
41435;DHT22;27177;22.262;114.192;2023-06-04T03:16:06;29.20;99.90
41435;DHT22;27177;22.262;114.192;2023-06-04T03:18:36;29.30;99.90
41435;DHT22;27177;22.262;114.192;2023-06-04T03:21:03;29.40;99.90
41435;DHT22;27177;22.262;114.192;2023-06-04T03:23:29;29.30;99.90
41435;DHT22;27177;22.262;114.192;2023-06-04T03:25:56;29.40;99.90
41435;DHT22;27177;22.262;114.192;2023-06-04T03:28:23;29.50;99.90
41435;DHT22;27177;22.262;114.192;2023-06-04T03:30:49;29.60;99.90
41435;DHT22;27177;22.262;114.192;2023-06-04T03:33:15;29.70;99.90
41435;DHT22;27177;22.262;114.192;2023-06-04T03:35:41;29.60;99.90
41435;DHT22;27177;22.262;114.192;2023-06-04T03:38:07;29.70;99.90
41435;DHT22;27177;22.262;114.192;2023-06-04T03:40:34;29.70;99.90
41435;DHT22;27177;22.262;114.192;2023-06-04T03:43:00;29.70;99.90
41435;DHT22;27177;22.262;114.192;2023-06-04T03:45:26;29.70;99.90
41435;DHT22;27177;22.262;114.192;2023-06-04T03:47:52;29.80;99.90
41435;DHT22;27177;22.262;114.192;2023-06-04T03:50:19;29.80;99.90
41435;DHT22;27177;22.262;114.192;2023-06-04T03:52:45;29.80;99.90
41435;DHT22;27177;22.262;114.192;2023-06-04T03:55:11;29.70;99.90
41435;DHT22;27177;22.262;114.192;2023-06-04T03:57:37;29.80;99.90
41435;DHT22;27177;22.262;114.192;2023-06-04T04:00:07;29.80;99.90
41435;DHT22;27177;22.262;114.192;2023-06-04T04:02:36;30.00;99.90
41435;DHT22;27177;22.262;114.192;2023-06-04T04:05:02;30.00;99.90
41435;DHT22;27177;22.262;114.192;2023-06-04T04:07:28;29.80;99.90
41435;DHT22;27177;22.262;114.192;2023-06-04T04:09:55;29.90;99.90
41435;DHT22;27177;22.262;114.192;2023-06-04T04:12:21;30.00;99.90
41435;DHT22;27177;22.262;114.192;2023-06-04T04:14:47;30.00;99.90
41435;DHT22;27177;22.262;114.192;2023-06-04T04:17:14;29.90;99.90
41435;DHT22;27177;22.262;114.192;2023-06-04T04:19:40;29.90;99.90
41435;DHT22;27177;22.262;114.192;2023-06-04T04:22:06;29.90;99.90
41435;DHT22;27177;22.262;114.192;2023-06-04T04:24:34;29.90;99.90
41435;DHT22;27177;22.262;114.192;2023-06-04T04:27:05;29.90;99.90
41435;DHT22;27177;22.262;114.192;2023-06-04T04:29:31;29.90;99.90
41435;DHT22;27177;22.262;114.192;2023-06-04T04:32:01;30.00;99.90
41435;DHT22;27177;22.262;114.192;2023-06-04T04:34:36;30.10;99.90
41435;DHT22;27177;22.262;114.192;2023-06-04T04:37:05;30.40;99.90
41435;DHT22;27177;22.262;114.192;2023-06-04T04:39:34;30.50;99.90
41435;DHT22;27177;22.262;114.192;2023-06-04T04:42:02;30.60;99.90
41435;DHT22;27177;22.262;114.192;2023-06-04T04:44:28;30.70;99.90
41435;DHT22;27177;22.262;114.192;2023-06-04T04:46:54;30.50;99.90
41435;DHT22;27177;22.262;114.192;2023-06-04T04:49:21;30.50;99.90
41435;DHT22;27177;22.262;114.192;2023-06-04T04:51:48;30.40;99.90
41435;DHT22;27177;22.262;114.192;2023-06-04T04:54:14;30.30;99.90
41435;DHT22;27177;22.262;114.192;2023-06-04T04:56:41;30.30;99.90
41435;DHT22;27177;22.262;114.192;2023-06-04T04:59:07;30.40;99.90
41435;DHT22;27177;22.262;114.192;2023-06-04T05:01:33;30.40;99.90
41435;DHT22;27177;22.262;114.192;2023-06-04T05:03:59;30.50;99.90
41435;DHT22;27177;22.262;114.192;2023-06-04T05:06:27;30.70;99.90
41435;DHT22;27177;22.262;114.192;2023-06-04T05:08:53;30.80;99.90
41435;DHT22;27177;22.262;114.192;2023-06-04T05:11:19;30.90;99.90
41435;DHT22;27177;22.262;114.192;2023-06-04T05:13:47;31.10;99.90
41435;DHT22;27177;22.262;114.192;2023-06-04T05:16:14;31.30;99.90
41435;DHT22;27177;22.262;114.192;2023-06-04T05:18:41;31.30;99.90
41435;DHT22;27177;22.262;114.192;2023-06-04T05:21:10;31.40;99.90
41435;DHT22;27177;22.262;114.192;2023-06-04T05:23:40;31.50;99.90
41435;DHT22;27177;22.262;114.192;2023-06-04T05:26:07;31.60;99.90
41435;DHT22;27177;22.262;114.192;2023-06-04T05:28:34;31.70;99.90
41435;DHT22;27177;22.262;114.192;2023-06-04T05:31:00;31.60;99.90
41435;DHT22;27177;22.262;114.192;2023-06-04T05:33:27;31.70;99.90
41435;DHT22;27177;22.262;114.192;2023-06-04T05:35:53;31.40;99.90
41435;DHT22;27177;22.262;114.192;2023-06-04T05:38:20;31.30;99.90
41435;DHT22;27177;22.262;114.192;2023-06-04T05:40:51;31.20;99.90
41435;DHT22;27177;22.262;114.192;2023-06-04T05:43:24;31.20;99.90
41435;DHT22;27177;22.262;114.192;2023-06-04T05:45:50;31.00;99.90
41435;DHT22;27177;22.262;114.192;2023-06-04T05:48:17;30.90;99.90
41435;DHT22;27177;22.262;114.192;2023-06-04T05:50:43;30.80;99.90
41435;DHT22;27177;22.262;114.192;2023-06-04T05:53:10;30.70;99.90
41435;DHT22;27177;22.262;114.192;2023-06-04T05:55:36;31.00;99.90
41435;DHT22;27177;22.262;114.192;2023-06-04T05:58:02;30.90;99.90
41435;DHT22;27177;22.262;114.192;2023-06-04T06:00:29;30.90;99.90
41435;DHT22;27177;22.262;114.192;2023-06-04T06:02:55;31.10;99.90
41435;DHT22;27177;22.262;114.192;2023-06-04T06:05:22;31.10;99.90
41435;DHT22;27177;22.262;114.192;2023-06-04T06:07:48;31.20;99.90
41435;DHT22;27177;22.262;114.192;2023-06-04T06:10:14;31.10;99.90
41435;DHT22;27177;22.262;114.192;2023-06-04T06:12:41;31.00;99.90
41435;DHT22;27177;22.262;114.192;2023-06-04T06:15:07;30.70;99.90
41435;DHT22;27177;22.262;114.192;2023-06-04T06:17:34;30.70;99.90
41435;DHT22;27177;22.262;114.192;2023-06-04T06:20:01;30.80;99.90
41435;DHT22;27177;22.262;114.192;2023-06-04T06:22:32;30.80;99.90
41435;DHT22;27177;22.262;114.192;2023-06-04T06:24:59;31.10;99.90
41435;DHT22;27177;22.262;114.192;2023-06-04T06:27:26;31.20;99.90
41435;DHT22;27177;22.262;114.192;2023-06-04T06:29:52;31.20;99.90
41435;DHT22;27177;22.262;114.192;2023-06-04T06:32:18;31.20;99.90
41435;DHT22;27177;22.262;114.192;2023-06-04T06:34:44;31.20;99.90
41435;DHT22;27177;22.262;114.192;2023-06-04T06:37:10;31.40;99.90
41435;DHT22;27177;22.262;114.192;2023-06-04T06:39:37;31.60;99.90
41435;DHT22;27177;22.262;114.192;2023-06-04T06:42:03;31.60;99.90
41435;DHT22;27177;22.262;114.192;2023-06-04T06:44:29;31.70;99.90
41435;DHT22;27177;22.262;114.192;2023-06-04T06:46:55;31.70;99.90
41435;DHT22;27177;22.262;114.192;2023-06-04T06:49:22;31.70;99.90
41435;DHT22;27177;22.262;114.192;2023-06-04T06:51:48;31.70;99.90
41435;DHT22;27177;22.262;114.192;2023-06-04T06:54:14;31.70;99.90
41435;DHT22;27177;22.262;114.192;2023-06-04T06:56:41;31.70;99.90
41435;DHT22;27177;22.262;114.192;2023-06-04T06:59:07;31.90;99.90
41435;DHT22;27177;22.262;114.192;2023-06-04T07:01:34;31.90;99.90
41435;DHT22;27177;22.262;114.192;2023-06-04T07:04:00;32.00;99.90
41435;DHT22;27177;22.262;114.192;2023-06-04T07:06:26;32.00;99.90
41435;DHT22;27177;22.262;114.192;2023-06-04T07:08:52;32.10;99.90
41435;DHT22;27177;22.262;114.192;2023-06-04T07:11:19;32.10;99.90
41435;DHT22;27177;22.262;114.192;2023-06-04T07:13:45;32.20;99.90
41435;DHT22;27177;22.262;114.192;2023-06-04T07:16:12;32.20;99.90
41435;DHT22;27177;22.262;114.192;2023-06-04T07:18:38;32.20;99.90
41435;DHT22;27177;22.262;114.192;2023-06-04T07:21:04;32.10;99.90
41435;DHT22;27177;22.262;114.192;2023-06-04T07:23:31;32.10;99.90
41435;DHT22;27177;22.262;114.192;2023-06-04T07:25:57;32.20;99.90
41435;DHT22;27177;22.262;114.192;2023-06-04T07:28:23;32.10;99.90
41435;DHT22;27177;22.262;114.192;2023-06-04T07:30:50;32.00;99.90
41435;DHT22;27177;22.262;114.192;2023-06-04T07:33:16;32.00;99.90
41435;DHT22;27177;22.262;114.192;2023-06-04T07:35:42;32.00;99.90
41435;DHT22;27177;22.262;114.192;2023-06-04T07:38:09;31.90;99.90
41435;DHT22;27177;22.262;114.192;2023-06-04T07:40:35;32.20;99.90
41435;DHT22;27177;22.262;114.192;2023-06-04T07:43:01;32.30;99.90
41435;DHT22;27177;22.262;114.192;2023-06-04T07:45:27;32.60;99.90
41435;DHT22;27177;22.262;114.192;2023-06-04T07:47:55;32.50;99.90
41435;DHT22;27177;22.262;114.192;2023-06-04T07:50:21;32.20;99.90
41435;DHT22;27177;22.262;114.192;2023-06-04T07:52:47;32.00;99.90
41435;DHT22;27177;22.262;114.192;2023-06-04T07:55:14;31.70;99.90
41435;DHT22;27177;22.262;114.192;2023-06-04T07:57:40;32.10;99.90
41435;DHT22;27177;22.262;114.192;2023-06-04T08:00:07;32.10;99.90
41435;DHT22;27177;22.262;114.192;2023-06-04T08:02:33;32.10;99.90
41435;DHT22;27177;22.262;114.192;2023-06-04T08:05:00;32.10;99.90
41435;DHT22;27177;22.262;114.192;2023-06-04T08:07:29;31.90;99.90
41435;DHT22;27177;22.262;114.192;2023-06-04T08:09:55;32.30;99.90
41435;DHT22;27177;22.262;114.192;2023-06-04T08:12:22;32.40;99.90
41435;DHT22;27177;22.262;114.192;2023-06-04T08:14:48;32.50;99.90
41435;DHT22;27177;22.262;114.192;2023-06-04T08:17:16;32.70;99.90
41435;DHT22;27177;22.262;114.192;2023-06-04T08:19:42;32.30;99.90
41435;DHT22;27177;22.262;114.192;2023-06-04T08:22:08;32.10;99.90
41435;DHT22;27177;22.262;114.192;2023-06-04T08:24:36;31.90;99.90
41435;DHT22;27177;22.262;114.192;2023-06-04T08:27:03;32.30;99.90
41435;DHT22;27177;22.262;114.192;2023-06-04T08:29:29;32.40;99.90
41435;DHT22;27177;22.262;114.192;2023-06-04T08:31:55;32.40;99.90
41435;DHT22;27177;22.262;114.192;2023-06-04T08:34:22;32.70;99.90
41435;DHT22;27177;22.262;114.192;2023-06-04T08:36:48;32.80;99.90
41435;DHT22;27177;22.262;114.192;2023-06-04T08:39:14;33.10;99.90
41435;DHT22;27177;22.262;114.192;2023-06-04T08:41:49;33.60;99.90
41435;DHT22;27177;22.262;114.192;2023-06-04T08:44:17;34.00;99.90
41435;DHT22;27177;22.262;114.192;2023-06-04T08:46:44;34.00;99.90
41435;DHT22;27177;22.262;114.192;2023-06-04T08:49:11;34.00;99.90
41435;DHT22;27177;22.262;114.192;2023-06-04T08:51:38;33.70;99.90
41435;DHT22;27177;22.262;114.192;2023-06-04T08:54:05;33.70;99.90
41435;DHT22;27177;22.262;114.192;2023-06-04T08:56:31;33.80;99.90
41435;DHT22;27177;22.262;114.192;2023-06-04T08:59:02;33.90;99.90
41435;DHT22;27177;22.262;114.192;2023-06-04T09:01:32;34.20;99.90
41435;DHT22;27177;22.262;114.192;2023-06-04T09:03:59;34.30;99.90
41435;DHT22;27177;22.262;114.192;2023-06-04T09:06:26;34.30;99.90
41435;DHT22;27177;22.262;114.192;2023-06-04T09:08:54;34.70;99.90
41435;DHT22;27177;22.262;114.192;2023-06-04T09:11:25;34.60;99.90
41435;DHT22;27177;22.262;114.192;2023-06-04T09:13:53;34.40;99.90
41435;DHT22;27177;22.262;114.192;2023-06-04T09:16:24;34.50;99.90
41435;DHT22;27177;22.262;114.192;2023-06-04T09:18:50;34.10;99.90
41435;DHT22;27177;22.262;114.192;2023-06-04T09:21:17;34.00;99.90
41435;DHT22;27177;22.262;114.192;2023-06-04T09:23:48;33.60;99.90
41435;DHT22;27177;22.262;114.192;2023-06-04T09:26:14;33.20;99.90
41435;DHT22;27177;22.262;114.192;2023-06-04T09:28:41;33.00;99.90
41435;DHT22;27177;22.262;114.192;2023-06-04T09:31:14;32.80;99.90
41435;DHT22;27177;22.262;114.192;2023-06-04T09:33:44;32.60;99.90
41435;DHT22;27177;22.262;114.192;2023-06-04T09:36:11;32.70;99.90
41435;DHT22;27177;22.262;114.192;2023-06-04T09:38:38;32.90;99.90
41435;DHT22;27177;22.262;114.192;2023-06-04T09:41:05;33.10;99.90
41435;DHT22;27177;22.262;114.192;2023-06-04T09:43:36;33.10;99.90
41435;DHT22;27177;22.262;114.192;2023-06-04T09:48:36;32.50;99.90
41435;DHT22;27177;22.262;114.192;2023-06-04T09:51:12;32.30;99.90
41435;DHT22;27177;22.262;114.192;2023-06-04T09:53:41;32.00;99.90
41435;DHT22;27177;22.262;114.192;2023-06-04T09:56:07;32.00;99.90
41435;DHT22;27177;22.262;114.192;2023-06-04T09:58:34;31.90;99.90
41435;DHT22;27177;22.262;114.192;2023-06-04T10:01:05;31.80;99.90
41435;DHT22;27177;22.262;114.192;2023-06-04T10:03:35;32.00;99.90
41435;DHT22;27177;22.262;114.192;2023-06-04T10:06:05;32.00;99.90
41435;DHT22;27177;22.262;114.192;2023-06-04T10:08:32;32.00;99.90
41435;DHT22;27177;22.262;114.192;2023-06-04T10:11:00;31.80;99.90
41435;DHT22;27177;22.262;114.192;2023-06-04T10:13:53;31.50;99.90
41435;DHT22;27177;22.262;114.192;2023-06-04T10:16:20;31.30;99.90
41435;DHT22;27177;22.262;114.192;2023-06-04T10:18:47;31.10;99.90
41435;DHT22;27177;22.262;114.192;2023-06-04T10:21:14;30.90;99.90
41435;DHT22;27177;22.262;114.192;2023-06-04T10:23:41;30.80;99.90
41435;DHT22;27177;22.262;114.192;2023-06-04T10:26:13;30.60;99.90
41435;DHT22;27177;22.262;114.192;2023-06-04T10:28:40;30.30;99.90
41435;DHT22;27177;22.262;114.192;2023-06-04T10:31:08;30.20;99.90
41435;DHT22;27177;22.262;114.192;2023-06-04T10:33:34;30.00;99.90
41435;DHT22;27177;22.262;114.192;2023-06-04T10:36:10;29.80;99.90
41435;DHT22;27177;22.262;114.192;2023-06-04T10:38:48;29.70;99.90
41435;DHT22;27177;22.262;114.192;2023-06-04T10:41:14;29.50;99.90
41435;DHT22;27177;22.262;114.192;2023-06-04T10:43:45;29.40;99.90
41435;DHT22;27177;22.262;114.192;2023-06-04T10:46:11;29.30;99.90
41435;DHT22;27177;22.262;114.192;2023-06-04T10:48:45;29.20;99.90
41435;DHT22;27177;22.262;114.192;2023-06-04T10:51:11;29.00;99.90
41435;DHT22;27177;22.262;114.192;2023-06-04T10:53:37;28.90;99.90
41435;DHT22;27177;22.262;114.192;2023-06-04T10:56:03;28.80;99.90
41435;DHT22;27177;22.262;114.192;2023-06-04T10:58:33;28.70;99.90
41435;DHT22;27177;22.262;114.192;2023-06-04T11:00:59;28.70;99.90
41435;DHT22;27177;22.262;114.192;2023-06-04T11:03:35;28.60;99.90
41435;DHT22;27177;22.262;114.192;2023-06-04T11:06:01;28.50;99.90
41435;DHT22;27177;22.262;114.192;2023-06-04T11:08:28;28.40;99.90
41435;DHT22;27177;22.262;114.192;2023-06-04T11:10:55;28.40;99.90
41435;DHT22;27177;22.262;114.192;2023-06-04T11:13:24;28.30;99.90
41435;DHT22;27177;22.262;114.192;2023-06-04T11:15:54;28.20;99.90
41435;DHT22;27177;22.262;114.192;2023-06-04T11:18:21;28.20;99.90
41435;DHT22;27177;22.262;114.192;2023-06-04T11:20:48;28.20;99.90
41435;DHT22;27177;22.262;114.192;2023-06-04T11:23:15;28.10;99.90
41435;DHT22;27177;22.262;114.192;2023-06-04T11:25:42;28.10;99.90
41435;DHT22;27177;22.262;114.192;2023-06-04T11:28:16;28.10;99.90
41435;DHT22;27177;22.262;114.192;2023-06-04T11:30:59;28.00;99.90
41435;DHT22;27177;22.262;114.192;2023-06-04T11:33:28;28.00;99.90
41435;DHT22;27177;22.262;114.192;2023-06-04T11:35:55;28.00;99.90
41435;DHT22;27177;22.262;114.192;2023-06-04T11:38:21;28.00;99.90
41435;DHT22;27177;22.262;114.192;2023-06-04T11:40:57;27.90;99.90
41435;DHT22;27177;22.262;114.192;2023-06-04T11:43:23;27.90;99.90
41435;DHT22;27177;22.262;114.192;2023-06-04T11:45:50;27.90;99.90
41435;DHT22;27177;22.262;114.192;2023-06-04T11:48:16;27.90;99.90
41435;DHT22;27177;22.262;114.192;2023-06-04T11:50:42;27.90;99.90
41435;DHT22;27177;22.262;114.192;2023-06-04T11:53:11;27.90;99.90
41435;DHT22;27177;22.262;114.192;2023-06-04T11:55:38;27.90;99.90
41435;DHT22;27177;22.262;114.192;2023-06-04T11:58:05;27.90;99.90
41435;DHT22;27177;22.262;114.192;2023-06-04T12:00:31;27.90;99.90
41435;DHT22;27177;22.262;114.192;2023-06-04T12:02:57;27.90;99.90
41435;DHT22;27177;22.262;114.192;2023-06-04T12:05:31;27.90;99.90
41435;DHT22;27177;22.262;114.192;2023-06-04T12:08:08;27.90;99.90
41435;DHT22;27177;22.262;114.192;2023-06-04T12:10:41;27.90;99.90
41435;DHT22;27177;22.262;114.192;2023-06-04T12:13:08;27.90;99.90
41435;DHT22;27177;22.262;114.192;2023-06-04T12:15:34;27.90;99.90
41435;DHT22;27177;22.262;114.192;2023-06-04T12:18:01;27.90;99.90
41435;DHT22;27177;22.262;114.192;2023-06-04T12:20:35;27.90;99.90
41435;DHT22;27177;22.262;114.192;2023-06-04T12:23:02;27.90;99.90
41435;DHT22;27177;22.262;114.192;2023-06-04T12:25:29;27.90;99.90
41435;DHT22;27177;22.262;114.192;2023-06-04T12:27:55;27.90;99.90
41435;DHT22;27177;22.262;114.192;2023-06-04T12:30:22;27.90;99.90
41435;DHT22;27177;22.262;114.192;2023-06-04T12:32:49;27.90;99.90
41435;DHT22;27177;22.262;114.192;2023-06-04T12:35:16;27.90;99.90
41435;DHT22;27177;22.262;114.192;2023-06-04T12:37:42;27.90;99.90
41435;DHT22;27177;22.262;114.192;2023-06-04T12:40:09;27.80;99.90
41435;DHT22;27177;22.262;114.192;2023-06-04T12:42:35;27.90;99.90
41435;DHT22;27177;22.262;114.192;2023-06-04T12:45:01;27.90;99.90
41435;DHT22;27177;22.262;114.192;2023-06-04T12:47:29;27.90;99.90
41435;DHT22;27177;22.262;114.192;2023-06-04T12:49:57;27.90;99.90
41435;DHT22;27177;22.262;114.192;2023-06-04T12:52:23;27.90;99.90
41435;DHT22;27177;22.262;114.192;2023-06-04T12:54:51;27.90;99.90
41435;DHT22;27177;22.262;114.192;2023-06-04T12:57:18;27.90;99.90
41435;DHT22;27177;22.262;114.192;2023-06-04T12:59:44;27.90;99.90
41435;DHT22;27177;22.262;114.192;2023-06-04T13:02:10;27.80;99.90
41435;DHT22;27177;22.262;114.192;2023-06-04T13:04:36;27.80;99.90
41435;DHT22;27177;22.262;114.192;2023-06-04T13:07:03;27.80;99.90
41435;DHT22;27177;22.262;114.192;2023-06-04T13:09:29;27.80;99.90
41435;DHT22;27177;22.262;114.192;2023-06-04T13:11:56;27.80;99.90
41435;DHT22;27177;22.262;114.192;2023-06-04T13:14:22;27.80;99.90
41435;DHT22;27177;22.262;114.192;2023-06-04T13:16:48;27.70;99.90
41435;DHT22;27177;22.262;114.192;2023-06-04T13:19:16;27.70;99.90
41435;DHT22;27177;22.262;114.192;2023-06-04T13:21:45;27.70;99.90
41435;DHT22;27177;22.262;114.192;2023-06-04T13:24:11;27.70;99.90
41435;DHT22;27177;22.262;114.192;2023-06-04T13:26:37;27.70;99.90
41435;DHT22;27177;22.262;114.192;2023-06-04T13:29:04;27.70;99.90
41435;DHT22;27177;22.262;114.192;2023-06-04T13:31:30;27.70;99.90
41435;DHT22;27177;22.262;114.192;2023-06-04T13:33:57;27.70;99.90
41435;DHT22;27177;22.262;114.192;2023-06-04T13:36:23;27.70;99.90
41435;DHT22;27177;22.262;114.192;2023-06-04T13:38:49;27.70;99.90
41435;DHT22;27177;22.262;114.192;2023-06-04T13:41:18;27.70;99.90
41435;DHT22;27177;22.262;114.192;2023-06-04T13:43:44;27.70;99.90
41435;DHT22;27177;22.262;114.192;2023-06-04T13:46:10;27.70;99.90
41435;DHT22;27177;22.262;114.192;2023-06-04T13:48:37;27.70;99.90
41435;DHT22;27177;22.262;114.192;2023-06-04T13:51:03;27.70;99.90
41435;DHT22;27177;22.262;114.192;2023-06-04T13:53:29;27.70;99.90
41435;DHT22;27177;22.262;114.192;2023-06-04T13:55:55;27.70;99.90
41435;DHT22;27177;22.262;114.192;2023-06-04T13:58:27;27.80;99.90
41435;DHT22;27177;22.262;114.192;2023-06-04T14:00:54;27.70;99.90
41435;DHT22;27177;22.262;114.192;2023-06-04T14:03:20;27.70;99.90
41435;DHT22;27177;22.262;114.192;2023-06-04T14:05:46;27.70;99.90
41435;DHT22;27177;22.262;114.192;2023-06-04T14:08:13;27.70;99.90
41435;DHT22;27177;22.262;114.192;2023-06-04T14:10:39;27.70;99.90
41435;DHT22;27177;22.262;114.192;2023-06-04T14:13:07;27.70;99.90
41435;DHT22;27177;22.262;114.192;2023-06-04T14:15:34;27.70;99.90
41435;DHT22;27177;22.262;114.192;2023-06-04T14:18:00;27.70;99.90
41435;DHT22;27177;22.262;114.192;2023-06-04T14:20:27;27.70;99.90
41435;DHT22;27177;22.262;114.192;2023-06-04T14:22:53;27.60;99.90
41435;DHT22;27177;22.262;114.192;2023-06-04T14:25:19;27.70;99.90
41435;DHT22;27177;22.262;114.192;2023-06-04T14:27:46;27.70;99.90
41435;DHT22;27177;22.262;114.192;2023-06-04T14:30:12;27.70;99.90
41435;DHT22;27177;22.262;114.192;2023-06-04T14:32:38;27.70;99.90
41435;DHT22;27177;22.262;114.192;2023-06-04T14:35:05;27.70;99.90
41435;DHT22;27177;22.262;114.192;2023-06-04T14:37:32;27.70;99.90
41435;DHT22;27177;22.262;114.192;2023-06-04T14:40:00;27.70;99.90
41435;DHT22;27177;22.262;114.192;2023-06-04T14:42:26;27.70;99.90
41435;DHT22;27177;22.262;114.192;2023-06-04T14:44:52;27.70;99.90
41435;DHT22;27177;22.262;114.192;2023-06-04T14:47:21;27.70;99.90
41435;DHT22;27177;22.262;114.192;2023-06-04T14:49:47;27.70;99.90
41435;DHT22;27177;22.262;114.192;2023-06-04T14:52:14;27.70;99.90
41435;DHT22;27177;22.262;114.192;2023-06-04T14:54:40;27.70;99.90
41435;DHT22;27177;22.262;114.192;2023-06-04T14:57:08;27.70;99.90
41435;DHT22;27177;22.262;114.192;2023-06-04T14:59:35;27.60;99.90
41435;DHT22;27177;22.262;114.192;2023-06-04T15:02:02;27.70;99.90
41435;DHT22;27177;22.262;114.192;2023-06-04T15:04:28;27.70;99.90
41435;DHT22;27177;22.262;114.192;2023-06-04T15:06:55;27.70;99.90
41435;DHT22;27177;22.262;114.192;2023-06-04T15:09:21;27.70;99.90